^^
Meteo Knjazevac Station Historical Data
Daily Summary for January 3, 2021 Units:  English    Metric   Both
Daily Weekly Monthly Yearly Custom
  High: Low: Average:
Temperature: 69.6 °F 54.7 °F 61.4 °F
Dew Point: 52.5 °F 44.8 °F 48.9 °F
Humidity: 80% 50% 64%
Wind Speed: 12mph 0mph 4.2mph
Wind Gust: 19mph - -
Wind- - WSW
Pressure: 30.22 in 29.96 in -
Precipitation: 0.00 in    
Historical Graphs
 
 
Tabular Data for January 3, 2021
Time Temperature Dew Point Pressure Wind Wind Speed Wind Gust Humidity Rainfall Rate (Hourly) solar Conditions
00:00 65.7 °F 46.5 °F 29.96 in West 6 mph 8 mph 50% 0.00 in 0 W/m2
00:10 65.3 °F 47.2 °F 29.96 in West 6 mph 11 mph 52% 0.00 in 0 W/m2
00:20 65.1 °F 47.1 °F 29.97 in WSW 5 mph 8 mph 52% 0.00 in 0 W/m2
00:30 64.6 °F 47.1 °F 29.97 in WSW 5 mph 9 mph 53% 0.00 in 0 W/m2
00:40 64.4 °F 46.9 °F 29.97 in WSW 6 mph 9 mph 53% 0.00 in 0 W/m2
00:50 64 °F 46.6 °F 29.97 in WSW 5 mph 8 mph 53% 0.00 in 0 W/m2
01:00 63.9 °F 46.5 °F 29.97 in SW 6 mph 10 mph 53% 0.00 in 0 W/m2
01:10 63.7 °F 46.7 °F 29.97 in WSW 7 mph 12 mph 54% 0.00 in 0 W/m2
01:20 63.4 °F 46.4 °F 29.98 in WSW 7 mph 12 mph 54% 0.00 in 0 W/m2
01:30 63.5 °F 46.6 °F 29.98 in WSW 7 mph 12 mph 54% 0.00 in 0 W/m2
01:40 63.7 °F 46.2 °F 29.98 in SW 9 mph 14 mph 53% 0.00 in 0 W/m2
01:50 64.1 °F 46.6 °F 29.98 in SW 8 mph 13 mph 53% 0.00 in 0 W/m2
02:00 64 °F 47.5 °F 29.99 in SW 8 mph 13 mph 55% 0.00 in 0 W/m2
02:10 63.5 °F 49.4 °F 29.99 in SW 8 mph 14 mph 60% 0.00 in 0 W/m2
02:20 62.8 °F 50.8 °F 29.99 in SW 8 mph 14 mph 65% 0.00 in 0 W/m2
02:30 62.2 °F 51.5 °F 30.00 in SW 7 mph 13 mph 68% 0.00 in 0 W/m2
02:40 61.6 °F 51.7 °F 30.00 in SW 6 mph 12 mph 70% 0.00 in 0 W/m2
02:50 61.2 °F 52.1 °F 30.01 in SW 5 mph 12 mph 72% 0.00 in 0 W/m2
03:00 60.7 °F 52.3 °F 30.01 in SW 6 mph 12 mph 74% 0.00 in 0 W/m2
03:10 60.4 °F 52.5 °F 30.01 in SW 5 mph 12 mph 75% 0.00 in 0 W/m2
03:20 60.1 °F 52.1 °F 30.01 in WSW 3 mph 8 mph 75% 0.00 in 0 W/m2
03:30 59.5 °F 52.3 °F 30.02 in WSW 6 mph 8 mph 77% 0.00 in 0 W/m2
03:40 59.2 °F 52 °F 30.03 in WSW 2 mph 8 mph 77% 0.00 in 0 W/m2
03:50 58.7 °F 51.5 °F 30.03 in WSW 3 mph 8 mph 77% 0.00 in 0 W/m2
04:00 58.3 °F 51.1 °F 30.03 in West 3 mph 8 mph 77% 0.00 in 0 W/m2
04:10 57.9 °F 50.8 °F 30.04 in WSW 3 mph 8 mph 77% 0.00 in 0 W/m2
04:20 57.4 °F 50.6 °F 30.04 in WSW 3 mph 7 mph 78% 0.00 in 0 W/m2
04:30 57 °F 50.2 °F 30.04 in WSW 5 mph 8 mph 78% 0.00 in 0 W/m2
04:40 56.7 °F 50.2 °F 30.04 in SW 6 mph 9 mph 79% 0.00 in 0 W/m2
04:50 56.1 °F 49.7 °F 30.05 in SW 8 mph 10 mph 79% 0.00 in 0 W/m2
05:00 55.8 °F 49.3 °F 30.05 in WSW 6 mph 10 mph 79% 0.00 in 0 W/m2
05:10 55.2 °F 49.2 °F 30.06 in WSW 3 mph 10 mph 80% 0.00 in 0 W/m2
05:20 55 °F 49 °F 30.06 in SW 3 mph 8 mph 80% 0.00 in 2 W/m2
05:30 54.9 °F 48.8 °F 30.07 in WSW 2 mph 6 mph 80% 0.00 in 5 W/m2
05:40 54.9 °F 48.8 °F 30.07 in SW 2 mph 6 mph 80% 0.00 in 11 W/m2
05:50 54.9 °F 48.8 °F 30.08 in SW 1 mph 4 mph 80% 0.00 in 24 W/m2
06:00 54.7 °F 48.7 °F 30.09 in Calm   3 mph 80% 0.00 in 37 W/m2
06:10 54.7 °F 48.6 °F 30.09 in Calm   2 mph 80% 0.00 in 40 W/m2
06:20 54.7 °F 48.6 °F 30.10 in WSW 2 mph 3 mph 80% 0.00 in 61 W/m2
06:30 54.7 °F 48.6 °F 30.10 in SW 3 mph 6 mph 80% 0.00 in 95 W/m2
06:40 54.7 °F 48.6 °F 30.10 in SW 3 mph 6 mph 80% 0.00 in 68 W/m2
06:50 54.9 °F 48.5 °F 30.11 in WSW 5 mph 9 mph 79% 0.00 in 132 W/m2
07:10 55.4 °F 48.7 °F 30.12 in SW 3 mph 9 mph 78% 0.00 in 77 W/m2
07:20 55.6 °F 48.5 °F 30.12 in SW 6 mph 9 mph 77% 0.00 in 71 W/m2
07:30 55.8 °F 48 °F 30.12 in SW 8 mph 10 mph 75% 0.00 in 80 W/m2
07:40 55.9 °F 47.8 °F 30.12 in SW 6 mph 11 mph 74% 0.00 in 167 W/m2
07:50 56.3 °F 48.5 °F 30.13 in SSW 5 mph 8 mph 75% 0.00 in 127 W/m2
08:00 56.5 °F 48.6 °F 30.13 in SW 3 mph 7 mph 75% 0.00 in 80 W/m2
08:10 56.5 °F 48.6 °F 30.13 in SW 3 mph 6 mph 75% 0.00 in 83 W/m2
08:20 56.5 °F 48.6 °F 30.13 in SW 2 mph 6 mph 75% 0.00 in 119 W/m2
08:30 56.7 °F 48.8 °F 30.13 in SW 2 mph 5 mph 75% 0.00 in 163 W/m2
08:40 57 °F 49.2 °F 30.13 in SW 5 mph 7 mph 75% 0.00 in 154 W/m2
08:50 57.3 °F 49.1 °F 30.14 in SW 5 mph 7 mph 74% 0.00 in 133 W/m2
09:00 57.6 °F 49.3 °F 30.14 in SW 3 mph 6 mph 74% 0.00 in 146 W/m2
09:10 57.6 °F 49 °F 30.13 in SW 3 mph 7 mph 73% 0.00 in 139 W/m2
09:20 57.9 °F 48.9 °F 30.13 in SW 3 mph 8 mph 72% 0.00 in 278 W/m2
09:30 58.5 °F 48.3 °F 30.13 in WSW 5 mph 8 mph 69% 0.00 in 231 W/m2
09:40 58.6 °F 48.5 °F 30.13 in WSW 2 mph 6 mph 69% 0.00 in 279 W/m2
09:50 59.2 °F 49.4 °F 30.14 in WSW 2 mph 5 mph 70% 0.00 in 451 W/m2
10:00 59.7 °F 49.9 °F 30.14 in West 1 mph 7 mph 70% 0.00 in 240 W/m2
10:10 60.3 °F 50 °F 30.14 in West 2 mph 5 mph 69% 0.00 in 335 W/m2
10:20 60.8 °F 50.6 °F 30.14 in West 5 mph 14 mph 69% 0.00 in 356 W/m2
10:30 61.3 °F 49.1 °F 30.14 in West 6 mph 14 mph 64% 0.00 in 325 W/m2
10:40 61.3 °F 49.1 °F 30.14 in SW 6 mph 9 mph 64% 0.00 in 351 W/m2
10:50 62 °F 49.7 °F 30.14 in WSW 6 mph 10 mph 64% 0.00 in 830 W/m2
11:00 63.1 °F 50.3 °F 30.14 in WSW 6 mph 12 mph 63% 0.00 in 859 W/m2
11:10 64.6 °F 51.3 °F 30.13 in West 8 mph 13 mph 62% 0.00 in 787 W/m2
11:20 64.4 °F 50.2 °F 30.13 in SW 7 mph 13 mph 60% 0.00 in 355 W/m2
11:30 64 °F 49.4 °F 30.13 in WSW 8 mph 12 mph 59% 0.00 in 271 W/m2
11:40 63.9 °F 49.2 °F 30.13 in WSW 7 mph 12 mph 59% 0.00 in 266 W/m2
11:50 64 °F 49.4 °F 30.13 in WSW 6 mph 11 mph 59% 0.00 in 357 W/m2
12:00 64.2 °F 49.6 °F 30.13 in WSW 6 mph 12 mph 59% 0.00 in 267 W/m2
12:10 64.4 °F 49.3 °F 30.13 in WSW 7 mph 11 mph 58% 0.00 in 226 W/m2
12:20 64.2 °F 49.1 °F 30.13 in WSW 5 mph 8 mph 58% 0.00 in 279 W/m2
12:30 64.4 °F 49.3 °F 30.13 in West 6 mph 9 mph 58% 0.00 in 238 W/m2
12:40 64.4 °F 49.3 °F 30.12 in West 7 mph 10 mph 58% 0.00 in 333 W/m2
12:50 64.8 °F 49.6 °F 30.12 in WSW 3 mph 8 mph 58% 0.00 in 337 W/m2
13:00 65.3 °F 49.7 °F 30.12 in West 6 mph 10 mph 57% 0.00 in 630 W/m2
13:10 66 °F 50.3 °F 30.12 in WSW 5 mph 13 mph 57% 0.00 in 902 W/m2
13:20 67.3 °F 50.1 °F 30.12 in WSW 8 mph 13 mph 54% 0.00 in 894 W/m2
13:30 67.8 °F 50.1 °F 30.12 in WSW 8 mph 12 mph 53% 0.00 in 667 W/m2
13:40 68.3 °F 50.5 °F 30.11 in WSW 9 mph 15 mph 53% 0.00 in 872 W/m2
13:50 69.1 °F 51.2 °F 30.10 in WSW 7 mph 15 mph 53% 0.00 in 862 W/m2
14:00 69.2 °F 51.4 °F 30.11 in West 6 mph 17 mph 53% 0.00 in 781 W/m2
14:10 69.6 °F 51.7 °F 30.11 in West 10 mph 15 mph 53% 0.00 in 751 W/m2
14:20 69.6 °F 51.2 °F 30.11 in West 12 mph 19 mph 52% 0.00 in 757 W/m2
14:40 68.9 °F 51.1 °F 30.11 in West 7 mph 17 mph 53% 0.00 in 524 W/m2
14:50 68.6 °F 50.7 °F 30.11 in West 7 mph 16 mph 53% 0.00 in 399 W/m2
15:00 68.4 °F 50.6 °F 30.11 in WNW 6 mph 13 mph 53% 0.00 in 411 W/m2
15:10 68.2 °F 50.4 °F 30.11 in West 8 mph 13 mph 53% 0.00 in 413 W/m2
15:20 68 °F 50.7 °F 30.11 in WSW 6 mph 12 mph 54% 0.00 in 426 W/m2
15:30 68 °F 49.7 °F 30.11 in WSW 5 mph 8 mph 52% 0.00 in 460 W/m2
15:40 68.3 °F 50.5 °F 30.11 in WNW 5 mph 8 mph 53% 0.00 in 440 W/m2
15:50 68.4 °F 50.1 °F 30.10 in NNW 2 mph 8 mph 52% 0.00 in 315 W/m2
16:00 68.2 °F 50.4 °F 30.11 in North 3 mph 8 mph 53% 0.00 in 280 W/m2
16:10 67.7 °F 50.4 °F 30.11 in North 7 mph 12 mph 54% 0.00 in 254 W/m2
16:20 67.3 °F 50.1 °F 30.11 in North 5 mph 8 mph 54% 0.00 in 244 W/m2
16:30 66.9 °F 50.2 °F 30.11 in North 5 mph 8 mph 55% 0.00 in 225 W/m2
16:40 66.6 °F 49.9 °F 30.11 in North 2 mph 9 mph 55% 0.00 in 197 W/m2
16:50 66.2 °F 49.6 °F 30.11 in NNE 3 mph 9 mph 55% 0.00 in 197 W/m2
17:00 66 °F 49.4 °F 30.12 in North 2 mph 12 mph 55% 0.00 in 159 W/m2
17:10 65.7 °F 50 °F 30.11 in North 5 mph 9 mph 57% 0.00 in 146 W/m2
17:20 65.5 °F 49.8 °F 30.12 in North 3 mph 9 mph 57% 0.00 in 159 W/m2
17:30 65.5 °F 49.8 °F 30.12 in North 2 mph 7 mph 57% 0.00 in 172 W/m2
17:40 65.7 °F 49 °F 30.11 in NNE 5 mph 7 mph 55% 0.00 in 204 W/m2
17:50 65.5 °F 48.9 °F 30.11 in North 5 mph 7 mph 55% 0.00 in 149 W/m2
18:00 65.3 °F 48.7 °F 30.11 in North 2 mph 8 mph 55% 0.00 in 133 W/m2
18:10 65.1 °F 49.5 °F 30.11 in North 1 mph 5 mph 57% 0.00 in 115 W/m2
18:20 64.9 °F 49.3 °F 30.12 in NNW 1 mph 7 mph 57% 0.00 in 118 W/m2
18:30 64.8 °F 49.2 °F 30.12 in NNW 1 mph 6 mph 57% 0.00 in 95 W/m2
18:40 64.6 °F 49 °F 30.12 in NNW 2 mph 5 mph 57% 0.00 in 74 W/m2
18:50 64.2 °F 48.7 °F 30.12 in NNE 6 mph 7 mph 57% 0.00 in 44 W/m2
19:00 63.7 °F 48.2 °F 30.12 in NNW 3 mph 7 mph 57% 0.00 in 30 W/m2
19:10 63.1 °F 48.1 °F 30.13 in North 2 mph 8 mph 58% 0.00 in 20 W/m2
19:20 62.6 °F 47.6 °F 30.13 in NNW 6 mph 9 mph 58% 0.00 in 10 W/m2
19:30 61.9 °F 47.4 °F 30.13 in NNW 5 mph 9 mph 59% 0.00 in 3 W/m2
19:40 61.5 °F 47.1 °F 30.13 in NW 5 mph 10 mph 59% 0.00 in 0 W/m2
19:50 61.2 °F 47.2 °F 30.13 in NNW 3 mph 10 mph 60% 0.00 in 0 W/m2
20:00 60.6 °F 47.5 °F 30.13 in NNW 1 mph 7 mph 62% 0.00 in 0 W/m2
20:10 60.3 °F 47.2 °F 30.14 in North 2 mph 7 mph 62% 0.00 in 0 W/m2
20:20 59.9 °F 46.8 °F 30.14 in NNW 5 mph 8 mph 62% 0.00 in 0 W/m2
20:30 59.5 °F 46.5 °F 30.15 in North 2 mph 6 mph 62% 0.00 in 0 W/m2
20:40 59.4 °F 46.8 °F 30.15 in NNE 2 mph 4 mph 63% 0.00 in 0 W/m2
20:50 59 °F 46.8 °F 30.15 in NNE 1 mph 5 mph 64% 0.00 in 0 W/m2
21:00 58.8 °F 46.7 °F 30.16 in North 1 mph 3 mph 64% 0.00 in 0 W/m2
21:10 58.6 °F 46.5 °F 30.16 in NNE 2 mph 4 mph 64% 0.00 in 0 W/m2
21:20 58.5 °F 46.7 °F 30.16 in Calm   3 mph 65% 0.00 in 0 W/m2
21:30 58.1 °F 47.2 °F 30.17 in Calm   2 mph 67% 0.00 in 0 W/m2
21:40 57.9 °F 47 °F 30.17 in Calm     67% 0.00 in 0 W/m2
21:50 57.9 °F 47.4 °F 30.17 in Calm   1 mph 68% 0.00 in 0 W/m2
22:00 57.6 °F 47.5 °F 30.17 in Calm   2 mph 69% 0.00 in 0 W/m2
22:10 57.6 °F 45.9 °F 30.17 in NNW 2 mph 3 mph 65% 0.00 in 0 W/m2
22:20 57.4 °F 45.7 °F 30.20 in Calm   2 mph 65% 0.00 in 0 W/m2
22:30 57.4 °F 47.7 °F 30.20 in NW 2 mph 3 mph 70% 0.00 in 0 W/m2
22:40 57.2 °F 45.5 °F 30.20 in North 2 mph 4 mph 65% 0.00 in 0 W/m2
22:50 57.2 °F 45.1 °F 30.20 in North 2 mph 5 mph 64% 0.00 in 0 W/m2
23:00 57 °F 45 °F 30.20 in North 3 mph 5 mph 64% 0.00 in 0 W/m2
23:10 57 °F 45 °F 30.20 in NNW 1 mph 5 mph 64% 0.00 in 0 W/m2
23:20 56.8 °F 44.8 °F 30.20 in Calm   3 mph 64% 0.00 in 0 W/m2
23:30 56.7 °F 45 °F 30.21 in Calm   3 mph 65% 0.00 in 0 W/m2
23:40 56.5 °F 46.4 °F 30.21 in Calm   2 mph 69% 0.00 in 0 W/m2
23:50 56.3 °F 46.3 °F 30.22 in Calm   2 mph 69% 0.00 in 0 W/m2
Knjazevac, Serbia
Compliments of Weather Underground - 2 mb